Latest Coastal Weather Observations for Christmas Island

IDW60701

Issued at 4:35 am WST Saturday 29 November 2014 (issued every 10 minutes, with the page automatically refreshed every 10 minutes)

About coastal observations | Map of coastal stations | Coastal observations for WA | Marine services | Other Formats
Station Details ID: 200790 Name: CHRISTMAS ISLAND AERO Lat: -10.45 Lon: 105.69 Height: 261.0 m
Data from the previous 72 hours. | See also: Recent months at Christmas Island
Date/Time
WST
Temp

°C
Wind Pressure Rain
since 9am
mm
Weather Cloud Vis
km
Sea
Height
m
Swell
Dir
 
Speed
knots
Gust
knots
hPa Trend Height
m
Period
s
Dir
29/04:27am 24.5 SE 7 11 1011.7 - 0.6 - Partly cloudy 10 - - - -
29/04:00am 24.4 SE 8 13 1010.2 - 0.6 - Cloudy 10 - - - -
29/03:00am 24.4 SE 7 10 1011.5 - 0.6 - Partly cloudy 10 - - - -
29/02:56am 24.4 SE 7 10 1011.5 - 0.6 - Partly cloudy 10 - - - -
29/02:24am 24.4 SE 7 12 1011.6 - 0.6 - Partly cloudy 10 - - - -
29/02:00am 24.5 SE 9 11 1012.1 - 0.6 - Partly cloudy 10 - - - -
29/01:00am 24.6 SE 11 16 1010.9 - 0.6 - Cloudy 10 - - - -
29/12:00am 24.7 SE 13 18 1012.4 - 0.6 - Partly cloudy 10 - - - -
 
Date/Time
WST
Temp

°C
Wind Pressure Rain
since 9am
mm
Weather Cloud Vis
km
Sea
Height
m
Swell
Dir
 
Speed
knots
Gust
knots
hPa Trend Height
m
Period
s
Dir
28/11:00pm 24.8 SE 13 19 1012.9 - 0.6 - Partly cloudy 10 - - - -
28/10:00pm 24.8 SE 13 22 1011.2 - 0.6 - Mostly cloudy 10 - - - -
28/09:00pm 24.8 SE 13 18 1012.6 - 0.6 - Partly cloudy 10 - - - -
28/08:00pm 24.9 SE 11 15 1012.8 - 0.6 - Partly cloudy 10 - - - -
28/07:00pm 24.9 SE 11 15 1010.7 - 0.6 - Cloudy 10 - - - -
28/06:00pm 25.2 SE 10 15 1011.7 - 0.6 - Partly cloudy 10 - - - -
28/05:00pm 25.4 SE 11 15 1011.5 - 0.6 - Partly cloudy 10 - - - -
28/04:00pm 25.7 ESE 8 11 1010.3 - 0.6 - Cloudy 10 - - - -
28/03:56pm 25.7 ESE 8 11 1011.9 - 0.6 - Partly cloudy 10 - - - -
28/03:47pm 25.7 ESE 8 11 1011.9 - 0.6 - Partly cloudy 10 - - - -
28/03:00pm 26.0 ESE 9 13 1012.5 - 0.0 - Cloudy 10 - - - -
28/02:06pm 26.8 ESE 9 13 1013.0 - 0.0 - Partly cloudy 10 - - - -
28/02:00pm 26.4 ESE 9 13 1013.1 - 0.0 - Partly cloudy 10 - - - -
28/01:22pm 26.7 ESE 10 13 1013.5 - 0.0 - Partly cloudy 10 - - - -
28/01:00pm 26.1 ESE 9 13 1012.2 - 0.0 - Cloudy 10 - - - -
28/12:00pm 27.0 ESE 11 14 1014.0 - 0.0 - Partly cloudy 10 - - - -
28/11:00am 27.1 ESE 11 15 1014.2 - 0.0 - Partly cloudy 10 - - - -
28/10:56am 27.4 ESE 11 15 1014.2 - 0.0 - Partly cloudy 10 - - - -
28/10:00am 26.7 SE 11 15 1012.7 - 0.4 - Cloudy 10 - - - -
28/09:00am 25.6 ESE 10 15 1013.9 - 0.2 - Partly cloudy 10 - - - -
28/08:00am 25.6 SE 11 12 1013.7 - 0.2 - Partly cloudy 10 - - - -
28/07:32am 25.2 SE 8 13 1013.2 - 0.2 - Partly cloudy 10 - - - -
28/07:00am 24.5 SE 7 9 1011.4 - 0.2 - Mostly clear 10 - - - -
28/06:55am 24.3 SE 8 11 1012.9 - 0.2 - Partly cloudy 10 - - - -
28/06:35am 24.3 SE 7 10 1012.8 - 0.2 - Partly cloudy 10 - - - -
28/06:00am 24.3 SE 6 10 1012.3 - 0.2 - Partly cloudy 10 - - - -
28/05:37am 24.3 SE 7 10 1011.8 - 0.2 - Partly cloudy 10 - - - -
28/05:33am 24.3 SE 7 10 1011.9 - 0.2 - Partly cloudy 10 - - - -
28/05:00am 24.4 SE 7 11 1011.8 - 0.2 - Partly cloudy 10 - - - -
28/04:23am 24.4 SE 7 9 1011.7 - 0.2 - Partly cloudy 10 - - - -
28/04:00am 24.4 ESE 6 9 1010.2 - 0.2 - Cloudy 10 - - - -
28/03:56am 24.4 SE 7 9 1011.7 - 0.2 - Partly cloudy 10 - - - -
28/03:00am 24.4 SE 7 11 1011.8 - 0.2 - Partly cloudy 10 - - - -
28/02:50am 24.4 SE 9 12 1011.8 - 0.2 - Partly cloudy 10 - - - -
28/02:00am 24.4 SE 7 10 1012.4 - 0.2 - Partly cloudy 10 - - - -
28/01:00am 24.4 SE 9 13 1011.0 - 0.2 - Cloudy 10 - - - -
28/12:00am 24.4 SE 8 12 1012.6 - 0.2 - Partly cloudy 10 - - - -
 
Date/Time
WST
Temp

°C
Wind Pressure Rain
since 9am
mm
Weather Cloud Vis
km
Sea
Height
m
Swell
Dir
 
Speed
knots
Gust
knots
hPa Trend Height
m
Period
s
Dir
27/11:00pm 24.4 SE 7 11 1012.9 - 0.2 - Partly cloudy 10 - - - -
27/10:00pm 24.4 SSE 6 9 1011.1 - 0.2 - Cloudy 10 - - - -
27/09:41pm 24.4 SSE 7 11 1012.4 - 0.2 - Partly cloudy 10 - - - -
27/09:03pm 24.5 SE 8 12 1012.1 - 0.2 - Partly cloudy 10 - - - -
27/09:00pm 24.5 SE 9 12 1012.1 - 0.2 - Partly cloudy 10 - - - -
27/08:57pm 24.5 SE 9 12 1012.1 - 0.2 - Partly cloudy 10 - - - -
27/08:44pm 24.4 SE 8 13 1012.1 - 0.2 - Partly cloudy 10 - - - -
27/08:29pm 24.5 SSE 8 12 1011.9 - 0.2 - Partly cloudy 10 - - - -
27/08:00pm 24.5 SE 9 14 1011.7 - 0.2 - Partly cloudy 10 - - - -
27/07:00pm 24.6 SE 8 11 1009.6 - 0.2 - Cloudy 10 - - - -
27/06:00pm 24.6 SSE 8 12 1010.7 - 0.2 - Partly cloudy 10 - - - -
27/05:00pm 24.9 SSE 6 9 1010.6 - 0.2 - Partly cloudy 10 - - - -
27/04:00pm 24.5 SE 7 9 1009.5 - 0.2 - Cloudy 10 - - - -
27/03:00pm 25.6 SE 10 13 1011.4 - 0.0 - Partly cloudy 10 - - - -
27/02:00pm 25.8 ESE 10 14 1012.2 - 0.0 - Partly cloudy 10 - - - -
27/01:00pm 26.1 ESE 11 15 1011.1 - 0.0 - Mostly cloudy 10 - - - -
27/12:00pm 26.3 SE 12 16 1012.8 - 0.0 - Partly cloudy 10 - - - -
27/11:00am 25.8 SE 11 15 1013.0 - 0.0 - Cloudy 10 - - - -
27/10:00am 25.9 SE 11 15 1011.5 - 0.0 - Cloudy 10 - - - -
27/09:16am 25.3 SE 11 14 1012.9 - 0.0 - Partly cloudy 10 - - - -
27/09:00am 25.2 SE 11 16 1012.7 - 0.0 - Cloudy 10 - - - -
27/08:58am 25.0 SE 11 16 1012.7 - 0.0 - Cloudy 10 - - - -
27/08:17am 24.9 SE 9 12 1012.2 - 0.0 - Partly cloudy 10 - - - -
27/08:15am 24.9 SE 9 12 1012.1 - 0.0 - Cloudy 10 - - - -
27/08:00am 24.9 SE 11 15 1011.9 - 0.0 - Partly cloudy 10 - - - -
27/07:04am 24.7 SE 9 14 1011.0 - 0.0 - Partly cloudy 10 - - - -
27/07:00am 24.4 SE 10 14 1009.4 - 0.0 - Mostly cloudy 10 - - - -
27/06:36am 24.0 SSE 8 13 1010.8 - 0.0 - Partly cloudy 10 - - - -
27/06:00am 24.0 SSE 7 11 1010.4 - 0.0 - Partly cloudy 10 - - - -
27/05:16am 24.1 SE 7 10 1010.2 - 0.0 - Partly cloudy 10 - - - -
27/05:00am 24.0 SE 8 11 1010.0 - 0.0 - Partly cloudy 10 - - - -
27/04:59am 23.9 SE 8 11 1010.0 - 0.0 - Partly cloudy 10 - - - -
27/04:47am 23.8 SE 7 12 1010.1 - 0.0 - Partly cloudy 10 - - - -
27/04:45am 23.8 SE 7 11 1010.1 - 0.0 - Partly cloudy 10 - - - -
27/04:13am 24.1 SE 7 9 1010.0 - 0.0 - Partly cloudy 10 - - - -
27/04:00am 24.1 SE 7 12 1008.6 - 0.0 - Cloudy 10 - - - -
27/03:00am 24.0 SE 8 11 1010.4 - 0.0 - Partly cloudy 10 - - - -
27/02:00am 23.9 SE 6 9 1011.0 - 0.0 - Partly cloudy 10 - - - -
27/01:00am 24.1 SE 9 13 1009.9 - 0.0 - Mostly cloudy 10 - - - -
27/12:00am 24.1 SE 8 12 1012.2 - 0.0 - Partly cloudy 10 - - - -
 
Date/Time
WST
Temp

°C
Wind Pressure Rain
since 9am
mm
Weather Cloud Vis
km
Sea
Height
m
Swell
Dir
 
Speed
knots
Gust
knots
hPa Trend Height
m
Period
s
Dir
26/11:00pm 24.3 SSE 7 11 1012.2 - 0.0 - Partly cloudy 10 - - - -
26/10:00pm 24.3 SE 7 12 1010.5 - 0.0 - Cloudy 10 - - - -
26/09:00pm 24.4 SE 7 11 1011.6 - 0.0 - Partly cloudy 10 - - - -
26/08:00pm 24.3 SSE 6 9 1011.2 - 0.0 - Cloudy 10 - - - -
26/07:00pm 24.4 SSE 6 10 1008.6 - 0.0 - Partly cloudy 10 - - - -
26/06:00pm 25.2 SSE 7 11 1009.6 - 0.0 - Partly cloudy 10 - - - -
26/05:00pm 25.4 SSE 7 11 1009.3 - 0.0 - Partly cloudy 10 - - - -
26/04:50pm 25.6 S 8 12 1009.3 - 0.0 - Partly cloudy 10 - - - -
26/04:00pm 26.7 SSE 8 14 1008.2 - 0.0 - Cloudy 10 - - - -
26/03:57pm 26.5 SSE 9 14 1009.7 - 0.0 - Partly cloudy 10 - - - -
26/03:00pm 26.6 SSE 8 13 1010.3 - 0.0 - Partly cloudy 10 - - - -
26/02:00pm 26.3 SE 11 14 1010.8 - 0.0 - Partly cloudy 10 - - - -
26/01:00pm 26.7 SE 11 16 1009.6 - 0.0 - Mostly clear 10 - - - -
26/12:00pm 27.0 SE 11 16 1011.6 - 0.0 - Partly cloudy 10 - - - -
26/11:00am 26.2 SE 11 16 1012.2 - 0.0 - Partly cloudy 10 - - - -
26/10:00am 25.8 SSE 10 15 1010.5 - 0.0 - Mostly clear 10 - - - -
26/09:00am 26.0 SE 9 15 1011.6 - 0.0 - Partly cloudy 10 - - - -
26/08:45am 25.6 SE 11 16 1011.5 - 0.0 - Partly cloudy 10 - - - -
26/08:29am 25.8 SE 11 16 1011.3 - 0.0 - Partly cloudy 10 - - - -
26/08:04am 25.2 SE 10 15 1011.2 - 0.0 - Partly cloudy 10 - - - -
26/08:00am 24.9 SE 10 15 1011.2 - 0.0 - Partly cloudy 10 - - - -
26/07:59am 24.9 SE 10 15 1011.2 - 0.0 - Partly cloudy 10 - - - -
26/07:43am 24.5 SE 9 14 1011.0 - 0.0 - Partly cloudy 10 - - - -
26/07:00am 24.0 SE 8 13 1009.3 - 0.0 - Mostly clear 10 - - - -
26/06:54am 24.0 SE 8 12 1010.7 - 0.0 - Partly cloudy 10 - - - -
26/06:27am 24.0 SE 10 15 1010.6 - 0.0 - Partly cloudy 10 - - - -
26/06:06am 23.8 SE 10 15 1010.2 - 0.0 - Partly cloudy 10 - - - -
26/06:00am 23.8 SE 10 15 1010.1 - 0.0 - Partly cloudy 10 - - - -

Other Formats:

Comma delimited format used in spreadsheet applications
http://www.bom.gov.au/fwo/IDW60701/IDW60701.96995.axf

JavaScript Object Notation format (JSON) in row-major order
http://www.bom.gov.au/fwo/IDW60701/IDW60701.96995.json